sensor_id;sensor_type;location;lat;lon;timestamp;P1;durP1;ratioP1;P2;durP2;ratioP2
19495;SDS011;9888;48.606;9.630;2022-11-20T00:02:08;6.60;;;2.23;;
19495;SDS011;9888;48.606;9.630;2022-11-20T00:04:36;6.50;;;2.13;;
19495;SDS011;9888;48.606;9.630;2022-11-20T00:07:03;10.67;;;2.10;;
19495;SDS011;9888;48.606;9.630;2022-11-20T00:09:32;7.30;;;2.50;;
19495;SDS011;9888;48.606;9.630;2022-11-20T00:12:00;5.60;;;1.80;;
19495;SDS011;9888;48.606;9.630;2022-11-20T00:14:28;7.60;;;2.13;;
19495;SDS011;9888;48.606;9.630;2022-11-20T00:16:59;6.47;;;2.40;;
19495;SDS011;9888;48.606;9.630;2022-11-20T00:19:29;6.80;;;2.40;;
19495;SDS011;9888;48.606;9.630;2022-11-20T00:21:56;6.60;;;2.43;;
19495;SDS011;9888;48.606;9.630;2022-11-20T00:24:28;9.93;;;2.40;;
19495;SDS011;9888;48.606;9.630;2022-11-20T00:26:56;7.10;;;2.23;;
19495;SDS011;9888;48.606;9.630;2022-11-20T00:29:24;6.47;;;1.80;;
19495;SDS011;9888;48.606;9.630;2022-11-20T00:31:51;5.70;;;1.60;;
19495;SDS011;9888;48.606;9.630;2022-11-20T00:34:18;5.67;;;1.33;;
19495;SDS011;9888;48.606;9.630;2022-11-20T00:36:58;6.83;;;2.20;;
19495;SDS011;9888;48.606;9.630;2022-11-20T00:39:24;6.23;;;1.90;;
19495;SDS011;9888;48.606;9.630;2022-11-20T00:41:51;10.27;;;2.50;;
19495;SDS011;9888;48.606;9.630;2022-11-20T00:44:30;9.83;;;2.30;;
19495;SDS011;9888;48.606;9.630;2022-11-20T00:46:58;6.07;;;2.17;;
19495;SDS011;9888;48.606;9.630;2022-11-20T00:49:26;8.60;;;2.20;;
19495;SDS011;9888;48.606;9.630;2022-11-20T00:51:53;8.27;;;2.30;;
19495;SDS011;9888;48.606;9.630;2022-11-20T00:54:20;6.27;;;2.03;;
19495;SDS011;9888;48.606;9.630;2022-11-20T00:56:47;6.70;;;2.30;;
19495;SDS011;9888;48.606;9.630;2022-11-20T00:59:15;7.70;;;2.90;;
19495;SDS011;9888;48.606;9.630;2022-11-20T01:01:44;5.83;;;1.70;;
19495;SDS011;9888;48.606;9.630;2022-11-20T01:04:11;6.80;;;2.10;;
19495;SDS011;9888;48.606;9.630;2022-11-20T01:06:39;9.10;;;2.20;;
19495;SDS011;9888;48.606;9.630;2022-11-20T01:09:07;7.13;;;2.50;;
19495;SDS011;9888;48.606;9.630;2022-11-20T01:11:40;7.60;;;2.27;;
19495;SDS011;9888;48.606;9.630;2022-11-20T01:14:13;6.37;;;2.20;;
19495;SDS011;9888;48.606;9.630;2022-11-20T01:20:05;8.20;;;2.23;;
19495;SDS011;9888;48.606;9.630;2022-11-20T01:22:33;8.90;;;1.83;;
19495;SDS011;9888;48.606;9.630;2022-11-20T01:25:00;7.67;;;1.97;;
19495;SDS011;9888;48.606;9.630;2022-11-20T01:27:27;6.37;;;2.17;;
19495;SDS011;9888;48.606;9.630;2022-11-20T01:29:57;6.10;;;2.10;;
19495;SDS011;9888;48.606;9.630;2022-11-20T01:32:26;7.23;;;2.20;;
19495;SDS011;9888;48.606;9.630;2022-11-20T01:34:54;5.87;;;1.90;;
19495;SDS011;9888;48.606;9.630;2022-11-20T01:37:21;7.67;;;2.27;;
19495;SDS011;9888;48.606;9.630;2022-11-20T01:39:48;6.60;;;2.17;;
19495;SDS011;9888;48.606;9.630;2022-11-20T01:42:19;7.33;;;2.40;;
19495;SDS011;9888;48.606;9.630;2022-11-20T01:48:09;7.03;;;2.00;;
19495;SDS011;9888;48.606;9.630;2022-11-20T01:50:37;7.23;;;1.87;;
19495;SDS011;9888;48.606;9.630;2022-11-20T01:53:07;6.33;;;2.07;;
19495;SDS011;9888;48.606;9.630;2022-11-20T01:55:39;6.27;;;1.77;;
19495;SDS011;9888;48.606;9.630;2022-11-20T01:58:22;7.27;;;2.30;;
19495;SDS011;9888;48.606;9.630;2022-11-20T02:00:59;7.30;;;2.00;;
19495;SDS011;9888;48.606;9.630;2022-11-20T02:03:30;6.73;;;2.30;;
19495;SDS011;9888;48.606;9.630;2022-11-20T02:08:30;6.83;;;2.27;;
19495;SDS011;9888;48.606;9.630;2022-11-20T02:10:58;7.23;;;2.37;;
19495;SDS011;9888;48.606;9.630;2022-11-20T02:13:28;7.90;;;2.33;;
19495;SDS011;9888;48.606;9.630;2022-11-20T02:16:15;7.77;;;2.70;;
19495;SDS011;9888;48.606;9.630;2022-11-20T02:18:43;9.30;;;2.83;;
19495;SDS011;9888;48.606;9.630;2022-11-20T02:23:59;6.57;;;2.30;;
19495;SDS011;9888;48.606;9.630;2022-11-20T02:26:31;7.87;;;2.63;;
19495;SDS011;9888;48.606;9.630;2022-11-20T02:29:27;6.90;;;2.33;;
19495;SDS011;9888;48.606;9.630;2022-11-20T02:32:17;7.30;;;2.30;;
19495;SDS011;9888;48.606;9.630;2022-11-20T02:34:46;8.00;;;2.90;;
19495;SDS011;9888;48.606;9.630;2022-11-20T02:37:13;8.27;;;2.70;;
19495;SDS011;9888;48.606;9.630;2022-11-20T02:39:41;8.20;;;3.07;;
19495;SDS011;9888;48.606;9.630;2022-11-20T02:42:10;7.00;;;2.20;;
19495;SDS011;9888;48.606;9.630;2022-11-20T02:44:37;6.97;;;2.60;;
19495;SDS011;9888;48.606;9.630;2022-11-20T02:47:05;6.80;;;2.63;;
19495;SDS011;9888;48.606;9.630;2022-11-20T02:49:32;7.27;;;2.40;;
19495;SDS011;9888;48.606;9.630;2022-11-20T02:51:59;8.50;;;2.77;;
19495;SDS011;9888;48.606;9.630;2022-11-20T02:54:27;6.50;;;2.20;;
19495;SDS011;9888;48.606;9.630;2022-11-20T02:57:06;7.47;;;2.50;;
19495;SDS011;9888;48.606;9.630;2022-11-20T02:59:34;8.90;;;2.17;;
19495;SDS011;9888;48.606;9.630;2022-11-20T03:02:01;7.40;;;2.50;;
19495;SDS011;9888;48.606;9.630;2022-11-20T03:04:29;7.07;;;2.53;;
19495;SDS011;9888;48.606;9.630;2022-11-20T03:06:57;8.50;;;2.97;;
19495;SDS011;9888;48.606;9.630;2022-11-20T03:09:24;10.60;;;2.87;;
19495;SDS011;9888;48.606;9.630;2022-11-20T03:11:55;8.80;;;3.10;;
19495;SDS011;9888;48.606;9.630;2022-11-20T03:14:26;7.60;;;2.87;;
19495;SDS011;9888;48.606;9.630;2022-11-20T03:16:56;7.27;;;2.77;;
19495;SDS011;9888;48.606;9.630;2022-11-20T03:19:25;7.43;;;2.33;;
19495;SDS011;9888;48.606;9.630;2022-11-20T03:21:53;8.97;;;2.77;;
19495;SDS011;9888;48.606;9.630;2022-11-20T03:24:20;6.43;;;2.47;;
19495;SDS011;9888;48.606;9.630;2022-11-20T03:26:47;9.57;;;2.87;;
19495;SDS011;9888;48.606;9.630;2022-11-20T03:29:15;7.80;;;2.60;;
19495;SDS011;9888;48.606;9.630;2022-11-20T03:31:42;7.87;;;3.10;;
19495;SDS011;9888;48.606;9.630;2022-11-20T03:34:17;7.90;;;2.80;;
19495;SDS011;9888;48.606;9.630;2022-11-20T03:36:44;7.10;;;2.73;;
19495;SDS011;9888;48.606;9.630;2022-11-20T03:39:11;8.47;;;3.23;;
19495;SDS011;9888;48.606;9.630;2022-11-20T03:41:39;7.80;;;2.63;;
19495;SDS011;9888;48.606;9.630;2022-11-20T03:44:08;7.67;;;2.43;;
19495;SDS011;9888;48.606;9.630;2022-11-20T03:46:37;6.97;;;2.47;;
19495;SDS011;9888;48.606;9.630;2022-11-20T03:49:06;6.47;;;2.50;;
19495;SDS011;9888;48.606;9.630;2022-11-20T03:51:34;6.37;;;1.90;;
19495;SDS011;9888;48.606;9.630;2022-11-20T03:54:03;6.20;;;2.13;;
19495;SDS011;9888;48.606;9.630;2022-11-20T03:56:34;7.70;;;2.60;;
19495;SDS011;9888;48.606;9.630;2022-11-20T03:59:03;7.00;;;2.03;;
19495;SDS011;9888;48.606;9.630;2022-11-20T04:01:32;6.93;;;2.00;;
19495;SDS011;9888;48.606;9.630;2022-11-20T04:04:03;6.13;;;2.10;;
19495;SDS011;9888;48.606;9.630;2022-11-20T04:06:36;7.60;;;2.50;;
19495;SDS011;9888;48.606;9.630;2022-11-20T04:09:04;6.90;;;2.30;;
19495;SDS011;9888;48.606;9.630;2022-11-20T04:11:32;8.20;;;2.37;;
19495;SDS011;9888;48.606;9.630;2022-11-20T04:17:27;6.07;;;1.90;;
19495;SDS011;9888;48.606;9.630;2022-11-20T04:19:54;6.53;;;2.10;;
19495;SDS011;9888;48.606;9.630;2022-11-20T04:22:21;7.00;;;2.20;;
19495;SDS011;9888;48.606;9.630;2022-11-20T04:24:49;7.27;;;2.50;;
19495;SDS011;9888;48.606;9.630;2022-11-20T04:27:17;6.00;;;2.20;;
19495;SDS011;9888;48.606;9.630;2022-11-20T04:29:44;7.60;;;2.60;;
19495;SDS011;9888;48.606;9.630;2022-11-20T04:32:12;6.23;;;2.10;;
19495;SDS011;9888;48.606;9.630;2022-11-20T04:34:40;8.07;;;2.00;;
19495;SDS011;9888;48.606;9.630;2022-11-20T04:37:07;7.53;;;2.60;;
19495;SDS011;9888;48.606;9.630;2022-11-20T04:39:34;8.13;;;2.73;;
19495;SDS011;9888;48.606;9.630;2022-11-20T04:42:01;7.10;;;3.00;;
19495;SDS011;9888;48.606;9.630;2022-11-20T04:44:46;7.23;;;2.20;;
19495;SDS011;9888;48.606;9.630;2022-11-20T04:47:15;6.50;;;2.17;;
19495;SDS011;9888;48.606;9.630;2022-11-20T04:49:41;10.17;;;2.60;;
19495;SDS011;9888;48.606;9.630;2022-11-20T04:52:11;7.03;;;2.70;;
19495;SDS011;9888;48.606;9.630;2022-11-20T04:54:39;9.07;;;2.60;;
19495;SDS011;9888;48.606;9.630;2022-11-20T04:57:06;7.47;;;2.57;;
19495;SDS011;9888;48.606;9.630;2022-11-20T04:59:41;7.87;;;2.77;;
19495;SDS011;9888;48.606;9.630;2022-11-20T05:02:08;7.57;;;2.60;;
19495;SDS011;9888;48.606;9.630;2022-11-20T05:04:35;6.80;;;2.43;;
19495;SDS011;9888;48.606;9.630;2022-11-20T05:07:04;7.20;;;2.70;;
19495;SDS011;9888;48.606;9.630;2022-11-20T05:09:31;6.97;;;2.43;;
19495;SDS011;9888;48.606;9.630;2022-11-20T05:11:58;5.90;;;1.97;;
19495;SDS011;9888;48.606;9.630;2022-11-20T05:14:25;7.83;;;2.47;;
19495;SDS011;9888;48.606;9.630;2022-11-20T05:16:52;7.80;;;2.43;;
19495;SDS011;9888;48.606;9.630;2022-11-20T05:19:19;6.47;;;2.03;;
19495;SDS011;9888;48.606;9.630;2022-11-20T05:21:46;7.67;;;2.50;;
19495;SDS011;9888;48.606;9.630;2022-11-20T05:24:14;6.17;;;2.03;;
19495;SDS011;9888;48.606;9.630;2022-11-20T05:26:41;7.83;;;2.80;;
19495;SDS011;9888;48.606;9.630;2022-11-20T05:29:10;7.30;;;1.97;;
19495;SDS011;9888;48.606;9.630;2022-11-20T05:31:39;6.33;;;1.90;;
19495;SDS011;9888;48.606;9.630;2022-11-20T05:34:06;7.17;;;2.47;;
19495;SDS011;9888;48.606;9.630;2022-11-20T05:36:33;8.33;;;2.63;;
19495;SDS011;9888;48.606;9.630;2022-11-20T05:39:01;7.03;;;2.53;;
19495;SDS011;9888;48.606;9.630;2022-11-20T05:41:28;6.67;;;2.17;;
19495;SDS011;9888;48.606;9.630;2022-11-20T05:43:55;6.20;;;2.23;;
19495;SDS011;9888;48.606;9.630;2022-11-20T05:46:24;6.37;;;2.27;;
19495;SDS011;9888;48.606;9.630;2022-11-20T05:48:51;7.80;;;2.73;;
19495;SDS011;9888;48.606;9.630;2022-11-20T05:51:18;6.67;;;2.10;;
19495;SDS011;9888;48.606;9.630;2022-11-20T05:53:51;6.10;;;1.83;;
19495;SDS011;9888;48.606;9.630;2022-11-20T05:56:19;7.97;;;2.70;;
19495;SDS011;9888;48.606;9.630;2022-11-20T05:58:48;6.13;;;1.93;;
19495;SDS011;9888;48.606;9.630;2022-11-20T06:01:20;6.53;;;2.10;;
19495;SDS011;9888;48.606;9.630;2022-11-20T06:03:49;6.30;;;2.20;;
19495;SDS011;9888;48.606;9.630;2022-11-20T06:09:40;6.43;;;1.93;;
19495;SDS011;9888;48.606;9.630;2022-11-20T06:12:11;6.03;;;1.90;;
19495;SDS011;9888;48.606;9.630;2022-11-20T06:14:38;9.60;;;2.17;;
19495;SDS011;9888;48.606;9.630;2022-11-20T06:17:05;7.20;;;2.10;;
19495;SDS011;9888;48.606;9.630;2022-11-20T06:19:32;5.80;;;2.17;;
19495;SDS011;9888;48.606;9.630;2022-11-20T06:21:58;6.73;;;2.00;;
19495;SDS011;9888;48.606;9.630;2022-11-20T06:24:26;6.43;;;1.77;;
19495;SDS011;9888;48.606;9.630;2022-11-20T06:26:54;6.57;;;2.13;;
19495;SDS011;9888;48.606;9.630;2022-11-20T06:29:24;6.37;;;2.20;;
19495;SDS011;9888;48.606;9.630;2022-11-20T06:31:50;6.53;;;2.13;;
19495;SDS011;9888;48.606;9.630;2022-11-20T06:34:18;6.70;;;1.97;;
19495;SDS011;9888;48.606;9.630;2022-11-20T06:36:45;6.20;;;2.20;;
19495;SDS011;9888;48.606;9.630;2022-11-20T06:39:12;7.30;;;2.00;;
19495;SDS011;9888;48.606;9.630;2022-11-20T06:41:39;7.07;;;2.30;;
19495;SDS011;9888;48.606;9.630;2022-11-20T06:44:06;7.97;;;2.20;;
19495;SDS011;9888;48.606;9.630;2022-11-20T06:46:34;5.80;;;1.73;;
19495;SDS011;9888;48.606;9.630;2022-11-20T06:49:06;6.60;;;1.90;;
19495;SDS011;9888;48.606;9.630;2022-11-20T06:51:33;7.00;;;2.30;;
19495;SDS011;9888;48.606;9.630;2022-11-20T06:54:01;7.10;;;2.20;;
19495;SDS011;9888;48.606;9.630;2022-11-20T06:56:28;6.17;;;2.03;;
19495;SDS011;9888;48.606;9.630;2022-11-20T06:58:55;5.73;;;1.73;;
19495;SDS011;9888;48.606;9.630;2022-11-20T07:01:22;6.47;;;2.30;;
19495;SDS011;9888;48.606;9.630;2022-11-20T07:03:49;6.23;;;2.07;;
19495;SDS011;9888;48.606;9.630;2022-11-20T07:06:16;6.80;;;2.13;;
19495;SDS011;9888;48.606;9.630;2022-11-20T07:08:43;7.03;;;2.20;;
19495;SDS011;9888;48.606;9.630;2022-11-20T07:11:12;6.97;;;2.33;;
19495;SDS011;9888;48.606;9.630;2022-11-20T07:13:40;7.00;;;2.37;;
19495;SDS011;9888;48.606;9.630;2022-11-20T07:16:07;6.17;;;2.33;;
19495;SDS011;9888;48.606;9.630;2022-11-20T07:18:35;6.67;;;2.07;;
19495;SDS011;9888;48.606;9.630;2022-11-20T07:21:03;6.67;;;2.20;;
19495;SDS011;9888;48.606;9.630;2022-11-20T07:23:32;6.40;;;1.93;;
19495;SDS011;9888;48.606;9.630;2022-11-20T07:26:07;5.47;;;1.90;;
19495;SDS011;9888;48.606;9.630;2022-11-20T07:28:38;6.67;;;1.80;;
19495;SDS011;9888;48.606;9.630;2022-11-20T07:31:10;7.03;;;2.10;;
19495;SDS011;9888;48.606;9.630;2022-11-20T07:33:38;5.93;;;2.10;;
19495;SDS011;9888;48.606;9.630;2022-11-20T07:36:06;7.40;;;1.97;;
19495;SDS011;9888;48.606;9.630;2022-11-20T07:38:32;6.60;;;2.07;;
19495;SDS011;9888;48.606;9.630;2022-11-20T07:40:59;5.33;;;1.60;;
19495;SDS011;9888;48.606;9.630;2022-11-20T07:46:13;6.07;;;1.87;;
19495;SDS011;9888;48.606;9.630;2022-11-20T07:48:40;5.60;;;1.60;;
19495;SDS011;9888;48.606;9.630;2022-11-20T07:51:07;5.40;;;1.67;;
19495;SDS011;9888;48.606;9.630;2022-11-20T07:53:35;5.50;;;1.50;;
19495;SDS011;9888;48.606;9.630;2022-11-20T07:56:03;6.20;;;2.10;;
19495;SDS011;9888;48.606;9.630;2022-11-20T07:58:31;5.90;;;1.50;;
19495;SDS011;9888;48.606;9.630;2022-11-20T08:01:03;5.83;;;1.50;;
19495;SDS011;9888;48.606;9.630;2022-11-20T08:03:33;5.73;;;1.60;;
19495;SDS011;9888;48.606;9.630;2022-11-20T08:06:02;5.20;;;1.57;;
19495;SDS011;9888;48.606;9.630;2022-11-20T08:08:30;5.53;;;1.60;;
19495;SDS011;9888;48.606;9.630;2022-11-20T08:11:01;5.13;;;1.63;;
19495;SDS011;9888;48.606;9.630;2022-11-20T08:13:47;5.60;;;1.87;;
19495;SDS011;9888;48.606;9.630;2022-11-20T08:16:32;6.53;;;1.80;;
19495;SDS011;9888;48.606;9.630;2022-11-20T08:19:02;6.87;;;1.83;;
19495;SDS011;9888;48.606;9.630;2022-11-20T08:21:30;5.70;;;1.70;;
19495;SDS011;9888;48.606;9.630;2022-11-20T08:23:59;7.00;;;2.07;;
19495;SDS011;9888;48.606;9.630;2022-11-20T08:26:28;6.37;;;1.87;;
19495;SDS011;9888;48.606;9.630;2022-11-20T08:28:58;7.80;;;2.07;;
19495;SDS011;9888;48.606;9.630;2022-11-20T08:31:26;6.27;;;1.90;;
19495;SDS011;9888;48.606;9.630;2022-11-20T08:33:53;6.87;;;1.87;;
19495;SDS011;9888;48.606;9.630;2022-11-20T08:36:20;6.20;;;1.83;;
19495;SDS011;9888;48.606;9.630;2022-11-20T08:38:51;5.87;;;1.50;;
19495;SDS011;9888;48.606;9.630;2022-11-20T08:41:20;5.60;;;1.70;;
19495;SDS011;9888;48.606;9.630;2022-11-20T08:43:54;5.23;;;1.40;;
19495;SDS011;9888;48.606;9.630;2022-11-20T08:46:24;6.30;;;1.67;;
19495;SDS011;9888;48.606;9.630;2022-11-20T08:49:04;6.93;;;2.10;;
19495;SDS011;9888;48.606;9.630;2022-11-20T08:51:31;5.53;;;1.60;;
19495;SDS011;9888;48.606;9.630;2022-11-20T08:53:59;5.70;;;1.60;;
19495;SDS011;9888;48.606;9.630;2022-11-20T08:56:27;5.90;;;1.90;;
19495;SDS011;9888;48.606;9.630;2022-11-20T08:58:54;6.33;;;1.60;;
19495;SDS011;9888;48.606;9.630;2022-11-20T09:04:36;7.20;;;2.07;;
19495;SDS011;9888;48.606;9.630;2022-11-20T09:07:03;6.50;;;1.73;;
19495;SDS011;9888;48.606;9.630;2022-11-20T09:12:22;5.53;;;1.50;;
19495;SDS011;9888;48.606;9.630;2022-11-20T09:14:50;4.70;;;1.30;;
19495;SDS011;9888;48.606;9.630;2022-11-20T09:17:19;5.23;;;1.60;;
19495;SDS011;9888;48.606;9.630;2022-11-20T09:19:47;6.20;;;1.70;;
19495;SDS011;9888;48.606;9.630;2022-11-20T09:22:16;6.17;;;1.93;;
19495;SDS011;9888;48.606;9.630;2022-11-20T09:27:36;6.03;;;1.90;;
19495;SDS011;9888;48.606;9.630;2022-11-20T09:30:04;5.83;;;1.57;;
19495;SDS011;9888;48.606;9.630;2022-11-20T09:32:35;5.90;;;1.87;;
19495;SDS011;9888;48.606;9.630;2022-11-20T09:35:05;6.40;;;1.67;;
19495;SDS011;9888;48.606;9.630;2022-11-20T09:37:35;5.43;;;1.40;;
19495;SDS011;9888;48.606;9.630;2022-11-20T09:40:04;8.23;;;1.60;;
19495;SDS011;9888;48.606;9.630;2022-11-20T09:48:25;5.60;;;1.70;;
19495;SDS011;9888;48.606;9.630;2022-11-20T09:54:15;5.40;;;1.40;;
19495;SDS011;9888;48.606;9.630;2022-11-20T09:56:46;5.40;;;1.50;;
19495;SDS011;9888;48.606;9.630;2022-11-20T10:08:16;4.90;;;1.40;;
19495;SDS011;9888;48.606;9.630;2022-11-20T10:11:48;5.10;;;1.17;;
19495;SDS011;9888;48.606;9.630;2022-11-20T10:20:40;4.80;;;1.17;;
19495;SDS011;9888;48.606;9.630;2022-11-20T10:31:54;5.20;;;1.20;;
19495;SDS011;9888;48.606;9.630;2022-11-20T10:34:32;4.63;;;1.10;;
19495;SDS011;9888;48.606;9.630;2022-11-20T10:37:02;5.20;;;1.17;;
19495;SDS011;9888;48.606;9.630;2022-11-20T10:43:03;5.50;;;1.53;;
19495;SDS011;9888;48.606;9.630;2022-11-20T10:48:22;5.03;;;1.30;;
19495;SDS011;9888;48.606;9.630;2022-11-20T10:54:03;5.20;;;1.40;;
19495;SDS011;9888;48.606;9.630;2022-11-20T10:56:48;4.43;;;0.90;;
19495;SDS011;9888;48.606;9.630;2022-11-20T11:02:31;5.27;;;1.20;;
19495;SDS011;9888;48.606;9.630;2022-11-20T11:05:05;4.50;;;1.00;;
19495;SDS011;9888;48.606;9.630;2022-11-20T11:07:42;4.70;;;1.10;;
19495;SDS011;9888;48.606;9.630;2022-11-20T11:13:24;4.50;;;1.00;;
19495;SDS011;9888;48.606;9.630;2022-11-20T11:15:53;4.90;;;1.07;;
19495;SDS011;9888;48.606;9.630;2022-11-20T11:18:28;4.47;;;0.90;;
19495;SDS011;9888;48.606;9.630;2022-11-20T11:20:59;8.07;;;1.40;;
19495;SDS011;9888;48.606;9.630;2022-11-20T11:23:34;4.70;;;1.00;;
19495;SDS011;9888;48.606;9.630;2022-11-20T11:26:17;4.37;;;0.90;;
19495;SDS011;9888;48.606;9.630;2022-11-20T11:29:01;4.97;;;1.23;;
19495;SDS011;9888;48.606;9.630;2022-11-20T11:31:30;5.00;;;1.10;;
19495;SDS011;9888;48.606;9.630;2022-11-20T11:34:13;6.40;;;1.40;;
19495;SDS011;9888;48.606;9.630;2022-11-20T11:36:42;4.77;;;1.30;;
19495;SDS011;9888;48.606;9.630;2022-11-20T11:39:32;5.10;;;1.23;;
19495;SDS011;9888;48.606;9.630;2022-11-20T11:42:00;5.97;;;1.20;;
19495;SDS011;9888;48.606;9.630;2022-11-20T11:44:29;8.10;;;1.27;;
19495;SDS011;9888;48.606;9.630;2022-11-20T11:47:32;4.97;;;1.33;;
19495;SDS011;9888;48.606;9.630;2022-11-20T11:58:06;5.30;;;1.53;;
19495;SDS011;9888;48.606;9.630;2022-11-20T12:00:38;5.07;;;1.33;;
19495;SDS011;9888;48.606;9.630;2022-11-20T12:03:19;5.20;;;1.47;;
19495;SDS011;9888;48.606;9.630;2022-11-20T12:09:21;6.00;;;1.60;;
19495;SDS011;9888;48.606;9.630;2022-11-20T12:12:17;5.07;;;1.20;;
19495;SDS011;9888;48.606;9.630;2022-11-20T12:14:59;5.47;;;1.50;;
19495;SDS011;9888;48.606;9.630;2022-11-20T12:17:28;5.77;;;1.60;;
19495;SDS011;9888;48.606;9.630;2022-11-20T12:19:59;5.10;;;1.40;;
19495;SDS011;9888;48.606;9.630;2022-11-20T12:22:32;7.60;;;1.50;;
19495;SDS011;9888;48.606;9.630;2022-11-20T12:25:17;5.30;;;1.50;;
19495;SDS011;9888;48.606;9.630;2022-11-20T12:31:01;5.67;;;1.47;;
19495;SDS011;9888;48.606;9.630;2022-11-20T12:34:02;7.70;;;1.30;;
19495;SDS011;9888;48.606;9.630;2022-11-20T12:42:04;5.83;;;1.60;;
19495;SDS011;9888;48.606;9.630;2022-11-20T12:51:09;5.57;;;1.53;;
19495;SDS011;9888;48.606;9.630;2022-11-20T12:59:32;7.07;;;1.47;;
19495;SDS011;9888;48.606;9.630;2022-11-20T13:02:28;8.70;;;1.67;;
19495;SDS011;9888;48.606;9.630;2022-11-20T13:05:31;4.90;;;1.30;;
19495;SDS011;9888;48.606;9.630;2022-11-20T13:08:25;6.57;;;1.30;;
19495;SDS011;9888;48.606;9.630;2022-11-20T13:14:12;5.00;;;1.33;;
19495;SDS011;9888;48.606;9.630;2022-11-20T13:19:30;6.87;;;1.60;;
19495;SDS011;9888;48.606;9.630;2022-11-20T13:21:58;5.40;;;1.03;;
19495;SDS011;9888;48.606;9.630;2022-11-20T13:24:32;5.70;;;1.30;;
19495;SDS011;9888;48.606;9.630;2022-11-20T13:27:01;5.07;;;1.23;;
19495;SDS011;9888;48.606;9.630;2022-11-20T13:29:31;5.17;;;1.27;;
19495;SDS011;9888;48.606;9.630;2022-11-20T13:32:11;5.10;;;1.30;;
19495;SDS011;9888;48.606;9.630;2022-11-20T13:34:56;5.07;;;1.30;;
19495;SDS011;9888;48.606;9.630;2022-11-20T13:37:33;5.30;;;1.60;;
19495;SDS011;9888;48.606;9.630;2022-11-20T13:40:10;5.10;;;1.30;;
19495;SDS011;9888;48.606;9.630;2022-11-20T13:42:44;4.37;;;0.90;;
19495;SDS011;9888;48.606;9.630;2022-11-20T13:45:23;9.70;;;1.43;;
19495;SDS011;9888;48.606;9.630;2022-11-20T13:47:54;5.07;;;1.20;;
19495;SDS011;9888;48.606;9.630;2022-11-20T13:53:13;5.00;;;1.20;;
19495;SDS011;9888;48.606;9.630;2022-11-20T14:02:25;4.83;;;1.13;;
19495;SDS011;9888;48.606;9.630;2022-11-20T14:04:56;5.20;;;1.20;;
19495;SDS011;9888;48.606;9.630;2022-11-20T14:11:23;4.70;;;1.10;;
19495;SDS011;9888;48.606;9.630;2022-11-20T14:13:58;7.83;;;1.13;;
19495;SDS011;9888;48.606;9.630;2022-11-20T14:16:43;4.87;;;1.13;;
19495;SDS011;9888;48.606;9.630;2022-11-20T14:19:32;4.70;;;0.90;;
19495;SDS011;9888;48.606;9.630;2022-11-20T14:25:34;4.93;;;1.10;;
19495;SDS011;9888;48.606;9.630;2022-11-20T14:27:41;5.00;;;1.20;;
19495;SDS011;9888;48.606;9.630;2022-11-20T14:30:18;5.20;;;1.27;;
19495;SDS011;9888;48.606;9.630;2022-11-20T14:32:47;4.80;;;1.27;;
19495;SDS011;9888;48.606;9.630;2022-11-20T14:35:27;4.93;;;1.10;;
19495;SDS011;9888;48.606;9.630;2022-11-20T14:37:57;4.80;;;1.23;;
19495;SDS011;9888;48.606;9.630;2022-11-20T14:40:33;5.13;;;1.20;;
19495;SDS011;9888;48.606;9.630;2022-11-20T14:43:25;4.33;;;1.00;;
19495;SDS011;9888;48.606;9.630;2022-11-20T14:48:35;5.20;;;1.30;;
19495;SDS011;9888;48.606;9.630;2022-11-20T14:51:08;7.43;;;1.50;;
19495;SDS011;9888;48.606;9.630;2022-11-20T14:54:11;5.30;;;1.30;;
19495;SDS011;9888;48.606;9.630;2022-11-20T14:56:58;5.53;;;1.10;;
19495;SDS011;9888;48.606;9.630;2022-11-20T14:59:28;5.20;;;1.30;;
19495;SDS011;9888;48.606;9.630;2022-11-20T15:02:02;7.63;;;1.57;;
19495;SDS011;9888;48.606;9.630;2022-11-20T15:04:48;6.73;;;1.73;;
19495;SDS011;9888;48.606;9.630;2022-11-20T15:07:24;5.30;;;1.37;;
19495;SDS011;9888;48.606;9.630;2022-11-20T15:10:02;4.97;;;1.63;;
19495;SDS011;9888;48.606;9.630;2022-11-20T15:12:40;5.33;;;1.43;;
19495;SDS011;9888;48.606;9.630;2022-11-20T15:15:31;6.00;;;1.57;;
19495;SDS011;9888;48.606;9.630;2022-11-20T15:18:14;6.40;;;1.30;;
19495;SDS011;9888;48.606;9.630;2022-11-20T15:20:47;5.57;;;1.50;;
19495;SDS011;9888;48.606;9.630;2022-11-20T15:26:49;5.20;;;1.40;;
19495;SDS011;9888;48.606;9.630;2022-11-20T15:29:17;5.60;;;1.40;;
19495;SDS011;9888;48.606;9.630;2022-11-20T15:31:46;6.13;;;1.70;;
19495;SDS011;9888;48.606;9.630;2022-11-20T15:34:14;7.07;;;1.50;;
19495;SDS011;9888;48.606;9.630;2022-11-20T15:36:42;11.50;;;1.70;;
19495;SDS011;9888;48.606;9.630;2022-11-20T15:39:18;5.43;;;1.50;;
19495;SDS011;9888;48.606;9.630;2022-11-20T15:41:45;5.30;;;1.30;;
19495;SDS011;9888;48.606;9.630;2022-11-20T15:44:28;6.33;;;1.80;;
19495;SDS011;9888;48.606;9.630;2022-11-20T15:46:57;43.87;;;6.23;;
19495;SDS011;9888;48.606;9.630;2022-11-20T15:49:25;11.97;;;1.67;;
19495;SDS011;9888;48.606;9.630;2022-11-20T15:51:53;5.50;;;1.50;;
19495;SDS011;9888;48.606;9.630;2022-11-20T15:54:20;5.53;;;1.23;;
19495;SDS011;9888;48.606;9.630;2022-11-20T15:56:49;5.70;;;1.43;;
19495;SDS011;9888;48.606;9.630;2022-11-20T15:59:18;5.07;;;1.40;;
19495;SDS011;9888;48.606;9.630;2022-11-20T16:01:46;5.50;;;1.70;;
19495;SDS011;9888;48.606;9.630;2022-11-20T16:04:15;10.37;;;1.40;;
19495;SDS011;9888;48.606;9.630;2022-11-20T16:06:44;5.30;;;1.60;;
19495;SDS011;9888;48.606;9.630;2022-11-20T16:09:13;5.30;;;1.30;;
19495;SDS011;9888;48.606;9.630;2022-11-20T16:11:41;5.27;;;1.33;;
19495;SDS011;9888;48.606;9.630;2022-11-20T16:14:10;5.63;;;1.90;;
19495;SDS011;9888;48.606;9.630;2022-11-20T16:16:56;7.37;;;1.70;;
19495;SDS011;9888;48.606;9.630;2022-11-20T16:19:24;6.97;;;2.50;;
19495;SDS011;9888;48.606;9.630;2022-11-20T16:21:51;5.30;;;1.80;;
19495;SDS011;9888;48.606;9.630;2022-11-20T16:24:19;5.30;;;1.50;;
19495;SDS011;9888;48.606;9.630;2022-11-20T16:26:46;5.20;;;1.40;;
19495;SDS011;9888;48.606;9.630;2022-11-20T16:29:13;5.33;;;1.47;;
19495;SDS011;9888;48.606;9.630;2022-11-20T16:31:40;6.30;;;1.60;;
19495;SDS011;9888;48.606;9.630;2022-11-20T16:34:10;5.93;;;1.50;;
19495;SDS011;9888;48.606;9.630;2022-11-20T16:36:39;5.40;;;1.37;;
19495;SDS011;9888;48.606;9.630;2022-11-20T16:39:10;5.57;;;1.50;;
19495;SDS011;9888;48.606;9.630;2022-11-20T16:41:39;5.87;;;1.73;;
19495;SDS011;9888;48.606;9.630;2022-11-20T16:44:08;5.93;;;1.53;;
19495;SDS011;9888;48.606;9.630;2022-11-20T16:46:37;9.37;;;1.80;;
19495;SDS011;9888;48.606;9.630;2022-11-20T16:49:05;6.97;;;1.80;;
19495;SDS011;9888;48.606;9.630;2022-11-20T16:51:38;5.57;;;1.50;;
19495;SDS011;9888;48.606;9.630;2022-11-20T16:54:06;5.60;;;1.20;;
19495;SDS011;9888;48.606;9.630;2022-11-20T16:56:35;4.60;;;1.20;;
19495;SDS011;9888;48.606;9.630;2022-11-20T16:59:02;8.73;;;2.50;;
19495;SDS011;9888;48.606;9.630;2022-11-20T17:01:30;5.70;;;1.50;;
19495;SDS011;9888;48.606;9.630;2022-11-20T17:04:00;5.83;;;1.40;;
19495;SDS011;9888;48.606;9.630;2022-11-20T17:06:31;12.00;;;1.70;;
19495;SDS011;9888;48.606;9.630;2022-11-20T17:09:08;5.27;;;1.47;;
19495;SDS011;9888;48.606;9.630;2022-11-20T17:11:37;6.13;;;1.70;;
19495;SDS011;9888;48.606;9.630;2022-11-20T17:14:04;5.30;;;1.43;;
19495;SDS011;9888;48.606;9.630;2022-11-20T17:16:32;5.50;;;1.60;;
19495;SDS011;9888;48.606;9.630;2022-11-20T17:19:00;5.03;;;1.30;;
19495;SDS011;9888;48.606;9.630;2022-11-20T17:21:30;6.87;;;1.70;;
19495;SDS011;9888;48.606;9.630;2022-11-20T17:24:00;5.77;;;1.67;;
19495;SDS011;9888;48.606;9.630;2022-11-20T17:26:30;5.13;;;1.50;;
19495;SDS011;9888;48.606;9.630;2022-11-20T17:29:00;5.10;;;1.60;;
19495;SDS011;9888;48.606;9.630;2022-11-20T17:32:11;5.77;;;1.70;;
19495;SDS011;9888;48.606;9.630;2022-11-20T17:34:40;7.17;;;2.57;;
19495;SDS011;9888;48.606;9.630;2022-11-20T17:37:17;6.30;;;2.07;;
19495;SDS011;9888;48.606;9.630;2022-11-20T17:42:57;10.50;;;3.80;;
19495;SDS011;9888;48.606;9.630;2022-11-20T17:45:24;8.73;;;3.47;;
19495;SDS011;9888;48.606;9.630;2022-11-20T17:47:55;10.77;;;3.93;;
19495;SDS011;9888;48.606;9.630;2022-11-20T17:53:10;8.47;;;3.70;;